Time;durP1;ratioP1;P1;durP2;ratioP2;P2;SDS_P1;SDS_P2;PMS_P1;PMS_P2;Temp;Humidity;BMP_temperature;BMP_pressure;BME280_temperature;BME280_humidity;BME280_pressure;Samples;Min_cycle;Max_cycle;Signal;HPM_P1;HPM_P2
2021/07/01 00:00:25;;;;;;;7.60;5.32;;;15.90;82.90;;;;;;4899870;29;20108;-95
2021/07/01 00:02:51;;;;;;;7.68;5.32;;;15.90;82.90;;;;;;4899551;29;20021;-94
2021/07/01 00:05:17;;;;;;;7.88;4.03;;;15.90;82.90;;;;;;4899905;29;20088;-95
2021/07/01 00:07:44;;;;;;;7.03;4.50;;;15.90;82.90;;;;;;4898763;29;20052;-96
2021/07/01 00:10:15;;;;;;;6.57;5.13;;;15.90;82.90;;;;;;4899907;29;20053;-95
2021/07/01 00:12:41;;;;;;;8.00;4.90;;;15.90;83.00;;;;;;4899396;29;20029;-95
2021/07/01 00:15:13;;;;;;;6.35;4.63;;;15.90;83.00;;;;;;4899840;29;20025;-95
2021/07/01 00:17:39;;;;;;;5.15;4.38;;;15.90;83.00;;;;;;4899741;29;20021;-95
2021/07/01 00:20:07;;;;;;;6.38;3.70;;;15.90;83.00;;;;;;4899784;29;20095;-94
2021/07/01 00:22:32;;;;;;;8.48;4.53;;;15.90;83.00;;;;;;4898285;29;20373;-96
2021/07/01 00:24:58;;;;;;;6.22;4.50;;;15.90;82.90;;;;;;4899492;29;20032;-94
2021/07/01 00:27:23;;;;;;;6.75;4.22;;;15.90;83.00;;;;;;4899248;29;20431;-93
2021/07/01 00:29:49;;;;;;;5.90;3.85;;;15.80;83.00;;;;;;4904714;29;20180;-94
2021/07/01 00:32:14;;;;;;;7.45;4.13;;;15.90;83.10;;;;;;4917547;29;20024;-92
2021/07/01 00:34:40;;;;;;;5.65;3.65;;;15.90;83.00;;;;;;4918143;29;20032;-93
2021/07/01 00:37:05;;;;;;;6.75;4.30;;;15.80;82.90;;;;;;4917732;29;20077;-93
2021/07/01 00:39:31;;;;;;;5.18;3.60;;;15.90;83.00;;;;;;4917870;29;20032;-92
2021/07/01 00:41:56;;;;;;;5.38;4.20;;;15.80;83.00;;;;;;4916515;29;20075;-93
2021/07/01 00:44:22;;;;;;;6.63;4.35;;;15.90;83.10;;;;;;4917878;29;20503;-94
2021/07/01 00:46:48;;;;;;;9.88;4.70;;;15.80;83.00;;;;;;4917905;29;20013;-94
2021/07/01 00:49:13;;;;;;;5.72;3.78;;;15.80;83.10;;;;;;4916674;29;20032;-93
2021/07/01 00:51:39;;;;;;;7.10;4.38;;;15.80;83.10;;;;;;4917700;29;20486;-94
2021/07/01 00:54:06;;;;;;;6.22;4.10;;;15.80;83.10;;;;;;4917658;29;20028;-95
2021/07/01 00:56:37;;;;;;;7.13;4.68;;;15.80;83.20;;;;;;4917839;29;20023;-93
2021/07/01 00:59:03;;;;;;;8.05;5.05;;;15.80;83.10;;;;;;4916498;29;20177;-93
2021/07/01 01:01:29;;;;;;;10.52;5.72;;;15.80;83.10;;;;;;4916773;29;20059;-95
2021/07/01 01:03:54;;;;;;;9.20;4.82;;;15.80;83.20;;;;;;4917729;29;20028;-94
2021/07/01 01:06:20;;;;;;;5.90;3.50;;;15.80;83.20;;;;;;4916262;29;20031;-94
2021/07/01 01:08:46;;;;;;;8.75;4.88;;;15.80;83.20;;;;;;4917656;29;20557;-95
2021/07/01 01:11:11;;;;;;;7.18;4.45;;;15.80;83.30;;;;;;4917645;29;20031;-92
2021/07/01 01:13:37;;;;;;;5.88;3.00;;;15.80;83.30;;;;;;4916955;29;20038;-92
2021/07/01 01:16:03;;;;;;;8.50;5.10;;;15.80;83.30;;;;;;4916121;29;20387;-93
2021/07/01 01:18:30;;;;;;;9.20;5.18;;;15.80;83.30;;;;;;4917344;29;20028;-94
2021/07/01 01:20:57;;;;;;;7.57;5.03;;;15.80;83.20;;;;;;4915612;29;20024;-95
2021/07/01 01:23:23;;;;;;;9.45;5.75;;;15.80;83.20;;;;;;4916835;29;20103;-95
2021/07/01 01:25:51;;;;;;;7.85;4.82;;;15.80;83.20;;;;;;4917401;29;20412;-96
2021/07/01 01:28:18;;;;;;;10.65;5.10;;;15.70;83.30;;;;;;4915863;29;20092;-95
2021/07/01 01:30:44;;;;;;;7.75;4.28;;;15.70;83.40;;;;;;4917387;29;20174;-94
2021/07/01 01:33:11;;;;;;;6.55;3.92;;;15.70;83.30;;;;;;4916952;29;20079;-95
2021/07/01 01:35:38;;;;;;;4.97;3.35;;;15.70;83.30;;;;;;4916146;29;20028;-96
2021/07/01 01:38:10;;;;;;;7.38;3.97;;;15.70;83.30;;;;;;4917411;29;20446;-95
2021/07/01 01:40:36;;;;;;;6.85;4.88;;;15.70;83.40;;;;;;4922822;29;20064;-96
2021/07/01 01:43:01;;;;;;;5.28;3.63;;;15.70;83.30;;;;;;4925563;29;20020;-96
2021/07/01 01:45:27;;;;;;;6.95;4.00;;;15.70;83.30;;;;;;4924074;29;20034;-96
2021/07/01 01:47:52;;;;;;;5.43;3.15;;;15.70;83.30;;;;;;4924198;29;20048;-96
2021/07/01 01:50:20;;;;;;;10.35;5.28;;;15.80;83.20;;;;;;4917644;29;20082;-93
2021/07/01 01:52:47;;;;;;;5.88;3.88;;;15.80;83.20;;;;;;4916467;29;20111;-92
2021/07/01 01:55:13;;;;;;;8.82;4.63;;;15.80;83.30;;;;;;4915591;29;20095;-93
2021/07/01 01:57:50;;;;;;;7.18;3.92;;;15.80;83.20;;;;;;4915564;29;20024;-94
2021/07/01 02:00:19;;;;;;;4.93;3.38;;;15.70;83.20;;;;;;4918045;29;20027;-92
2021/07/01 02:02:44;;;;;;;5.50;2.83;;;15.70;83.20;;;;;;4909370;29;20034;-92
2021/07/01 02:05:10;;;;;;;6.00;3.38;;;15.70;83.10;;;;;;4915495;29;20122;-93
2021/07/01 02:07:37;;;;;;;7.35;3.35;;;15.70;83.20;;;;;;4916511;29;20027;-93
2021/07/01 02:10:05;;;;;;;6.70;4.20;;;15.70;83.30;;;;;;4915075;29;20032;-93
2021/07/01 02:12:31;;;;;;;5.63;3.20;;;15.70;83.30;;;;;;4914932;29;20448;-93
2021/07/01 02:14:58;;;;;;;6.07;3.30;;;15.70;83.30;;;;;;4915558;29;20036;-93
2021/07/01 02:17:24;;;;;;;6.45;3.72;;;15.70;83.20;;;;;;4918611;29;20024;-93
2021/07/01 02:19:49;;;;;;;8.32;4.40;;;15.60;83.30;;;;;;4923170;29;20039;-93
2021/07/01 02:22:15;;;;;;;8.20;4.15;;;15.50;83.30;;;;;;4920209;29;20032;-94
2021/07/01 02:24:54;;;;;;;6.68;3.53;;;15.50;83.40;;;;;;4916839;29;20035;-95
2021/07/01 02:27:20;;;;;;;6.00;3.78;;;15.50;83.50;;;;;;4915437;29;20035;-94
2021/07/01 02:29:45;;;;;;;6.28;3.58;;;15.50;83.50;;;;;;4915095;29;20575;-94
2021/07/01 02:32:11;;;;;;;5.05;3.28;;;15.50;83.50;;;;;;4918058;29;20048;-96
2021/07/01 02:34:40;;;;;;;4.80;3.20;;;15.50;83.50;;;;;;4920392;29;20032;-95
2021/07/01 02:37:07;;;;;;;5.70;3.22;;;15.50;83.60;;;;;;4919441;29;20024;-95
2021/07/01 02:39:34;;;;;;;6.97;4.18;;;15.50;83.60;;;;;;4920434;29;20079;-95
2021/07/01 02:41:59;;;;;;;6.75;4.15;;;15.40;83.50;;;;;;4920252;29;20032;-96
2021/07/01 02:44:25;;;;;;;4.65;3.20;;;15.40;83.50;;;;;;4920271;29;20063;-95
2021/07/01 02:46:51;;;;;;;3.55;2.40;;;15.40;83.60;;;;;;4920280;29;20032;-93
2021/07/01 02:49:16;;;;;;;3.75;2.70;;;15.50;83.60;;;;;;4919670;29;20039;-95
2021/07/01 02:51:42;;;;;;;4.70;3.58;;;15.50;83.60;;;;;;4919467;29;20076;-95
2021/07/01 02:54:07;;;;;;;5.35;3.47;;;15.50;83.60;;;;;;4919087;29;20024;-95
2021/07/01 02:56:42;;;;;;;7.95;4.10;;;15.50;83.60;;;;;;4919865;29;20028;-94
2021/07/01 02:59:09;;;;;;;4.90;2.90;;;15.40;83.60;;;;;;4918864;29;20063;-93
2021/07/01 03:01:34;;;;;;;5.03;3.22;;;15.40;83.60;;;;;;4919562;29;20035;-94
2021/07/01 03:04:00;;;;;;;5.32;3.70;;;15.40;83.60;;;;;;4919766;29;20375;-94
2021/07/01 03:06:26;;;;;;;6.65;3.55;;;15.30;83.50;;;;;;4918680;29;20047;-95
2021/07/01 03:08:54;;;;;;;7.22;3.80;;;15.30;83.70;;;;;;4919647;29;20392;-95
2021/07/01 03:11:20;;;;;;;6.13;3.67;;;15.30;83.80;;;;;;4918494;29;20025;-94
2021/07/01 03:13:45;;;;;;;4.82;3.28;;;15.30;83.90;;;;;;4919639;29;20033;-93
2021/07/01 03:16:13;;;;;;;5.25;2.80;;;15.30;83.80;;;;;;4919566;29;20413;-96
2021/07/01 03:18:38;;;;;;;5.32;3.00;;;15.30;83.80;;;;;;4920389;29;20035;-95
2021/07/01 03:21:04;;;;;;;6.82;3.30;;;15.40;83.90;;;;;;4920046;29;20029;-95
2021/07/01 03:23:29;;;;;;;5.18;2.90;;;15.30;83.70;;;;;;4918641;29;20407;-96
2021/07/01 03:25:55;;;;;;;5.50;2.97;;;15.30;83.70;;;;;;4928986;29;20458;-96
2021/07/01 03:28:20;;;;;;;5.18;2.80;;;15.30;83.70;;;;;;4919359;29;20574;-95
2021/07/01 03:30:46;;;;;;;6.65;3.28;;;15.30;83.80;;;;;;4919657;29;20043;-95
2021/07/01 03:33:11;;;;;;;5.20;3.17;;;15.30;83.70;;;;;;4919247;29;20017;-95
2021/07/01 03:35:37;;;;;;;6.68;3.10;;;15.30;83.70;;;;;;4917875;29;20490;-95
2021/07/01 03:38:03;;;;;;;4.53;2.90;;;15.30;83.70;;;;;;4918199;29;20024;-95
2021/07/01 03:40:28;;;;;;;7.18;3.28;;;15.30;83.70;;;;;;4919083;29;20047;-96
2021/07/01 03:42:54;;;;;;;5.28;3.00;;;15.30;83.80;;;;;;4918401;29;20067;-93
2021/07/01 03:45:19;;;;;;;4.97;2.70;;;15.40;83.80;;;;;;4918181;29;20016;-93
2021/07/01 03:47:45;;;;;;;5.20;3.17;;;15.40;83.70;;;;;;4919244;29;20482;-93
2021/07/01 03:50:11;;;;;;;6.72;3.30;;;15.40;83.60;;;;;;4918774;29;20047;-94
2021/07/01 03:52:36;;;;;;;5.88;2.67;;;15.40;83.60;;;;;;4918644;29;20035;-91
2021/07/01 03:55:02;;;;;;;5.10;3.00;;;15.40;83.70;;;;;;4917572;29;20421;-91
2021/07/01 03:57:28;;;;;;;6.70;3.47;;;15.30;83.60;;;;;;4918444;29;20020;-91
2021/07/01 03:59:53;;;;;;;6.22;3.08;;;15.40;83.60;;;;;;4918560;29;20040;-90
2021/07/01 04:02:19;;;;;;;6.07;3.17;;;15.30;83.70;;;;;;4900114;29;20029;-93
2021/07/01 04:04:44;;;;;;;7.30;3.53;;;15.30;83.80;;;;;;4899660;29;20028;-93
2021/07/01 04:07:10;;;;;;;6.13;4.20;;;15.30;83.80;;;;;;4898509;29;20506;-94
2021/07/01 04:09:36;;;;;;;8.80;4.05;;;15.30;83.80;;;;;;4898540;29;20051;-94
2021/07/01 04:12:02;;;;;;;7.18;3.13;;;15.20;83.80;;;;;;4899517;29;20025;-94
2021/07/01 04:14:28;;;;;;;5.95;3.30;;;15.20;83.90;;;;;;4899550;29;20025;-94
2021/07/01 04:16:53;;;;;;;6.50;3.15;;;15.20;83.90;;;;;;4899633;29;20469;-94
2021/07/01 04:19:19;;;;;;;7.43;3.42;;;15.20;83.90;;;;;;4899275;29;20083;-93
2021/07/01 04:21:45;;;;;;;3.30;1.77;;;15.20;84.00;;;;;;4899303;29;20025;-93
2021/07/01 04:24:10;;;;;;;6.32;2.92;;;15.30;84.10;;;;;;4899561;29;20025;-93
2021/07/01 04:26:37;;;;;;;6.22;3.70;;;15.20;84.00;;;;;;4899364;29;20048;-93
2021/07/01 04:29:03;;;;;;;4.45;2.38;;;15.20;84.10;;;;;;4897877;29;20050;-92
2021/07/01 04:31:29;;;;;;;5.25;2.75;;;15.20;84.10;;;;;;4898057;29;20072;-94
2021/07/01 04:33:55;;;;;;;6.43;3.10;;;15.30;84.10;;;;;;4898235;29;20025;-93
2021/07/01 04:36:20;;;;;;;5.35;2.90;;;15.30;84.10;;;;;;4899291;29;20069;-94
2021/07/01 04:38:46;;;;;;;7.25;3.55;;;15.30;84.00;;;;;;4899495;29;20083;-92
2021/07/01 04:41:14;;;;;;;6.25;3.15;;;15.30;84.10;;;;;;4899124;29;20032;-92
2021/07/01 04:43:39;;;;;;;3.42;2.55;;;15.20;84.10;;;;;;4897571;29;20028;-92
2021/07/01 04:46:05;;;;;;;4.13;2.40;;;15.30;84.10;;;;;;4900323;29;20427;-93
2021/07/01 04:48:31;;;;;;;5.03;2.88;;;15.30;84.00;;;;;;4901784;29;20068;-96
2021/07/01 04:50:56;;;;;;;6.50;3.38;;;15.30;84.00;;;;;;4917597;29;20040;-94
2021/07/01 04:53:22;;;;;;;6.15;3.00;;;15.30;83.90;;;;;;4917363;29;20024;-94
2021/07/01 04:55:48;;;;;;;8.75;3.45;;;15.20;83.90;;;;;;4916979;29;20502;-95
2021/07/01 04:58:13;;;;;;;6.78;3.25;;;15.20;84.00;;;;;;4917509;29;20467;-94
2021/07/01 05:00:39;;;;;;;7.15;3.30;;;15.20;84.20;;;;;;4917898;29;20032;-94
2021/07/01 05:03:04;;;;;;;6.38;3.20;;;15.10;84.20;;;;;;4917188;29;20024;-94
2021/07/01 05:05:30;;;;;;;3.40;2.25;;;15.20;84.40;;;;;;4916848;29;20507;-93
2021/07/01 05:07:55;;;;;;;6.15;3.20;;;15.20;84.30;;;;;;4917888;29;20119;-94
2021/07/01 05:10:21;;;;;;;7.35;3.17;;;15.20;84.20;;;;;;4917581;29;20066;-94
2021/07/01 05:12:47;;;;;;;8.77;3.00;;;15.20;84.20;;;;;;4915808;29;20480;-92
2021/07/01 05:15:12;;;;;;;5.78;3.42;;;15.20;84.20;;;;;;4916961;29;20488;-95
2021/07/01 05:17:43;;;;;;;8.10;3.25;;;15.20;84.20;;;;;;4912806;29;20407;-94
2021/07/01 05:20:09;;;;;;;6.38;3.47;;;15.20;84.10;;;;;;4914963;29;20028;-96
2021/07/01 05:22:35;;;;;;;7.75;4.05;;;15.20;84.10;;;;;;4918257;29;20020;-94
2021/07/01 05:25:00;;;;;;;6.70;3.28;;;15.20;84.10;;;;;;4907117;29;20032;-96
2021/07/01 05:27:26;;;;;;;6.43;3.72;;;15.20;84.20;;;;;;4915962;29;20063;-94
2021/07/01 05:29:52;;;;;;;6.47;3.53;;;15.10;84.20;;;;;;4915555;29;20083;-94
2021/07/01 05:32:18;;;;;;;8.65;4.45;;;15.20;84.30;;;;;;4917724;29;20028;-96
2021/07/01 05:34:44;;;;;;;7.72;4.20;;;15.20;84.30;;;;;;4915285;29;20032;-93
2021/07/01 05:37:10;;;;;;;7.35;3.30;;;15.20;84.30;;;;;;4911567;29;20035;-93
2021/07/01 05:39:39;;;;;;;3.42;2.17;;;15.10;84.30;;;;;;4914704;29;20032;-92
2021/07/01 05:42:05;;;;;;;8.43;3.92;;;15.10;84.40;;;;;;4913425;29;20036;-93
2021/07/01 05:44:30;;;;;;;3.53;2.10;;;15.10;84.50;;;;;;4915616;29;20020;-92
2021/07/01 05:46:56;;;;;;;7.88;4.05;;;15.10;84.50;;;;;;4916715;29;20084;-92
2021/07/01 05:49:21;;;;;;;7.28;3.75;;;15.10;84.50;;;;;;4916520;29;20040;-91
2021/07/01 05:51:49;;;;;;;5.68;3.05;;;15.10;84.60;;;;;;4915349;29;20047;-92
2021/07/01 05:54:35;;;;;;;6.13;3.08;;;15.20;84.60;;;;;;4915501;29;20024;-93
2021/07/01 05:57:02;;;;;;;9.60;3.80;;;15.20;84.60;;;;;;4917328;29;20063;-93
2021/07/01 05:59:28;;;;;;;7.25;3.50;;;15.20;84.50;;;;;;4917479;29;20102;-92
2021/07/01 06:01:54;;;;;;;4.80;3.08;;;15.20;84.40;;;;;;4919298;29;20063;-95
2021/07/01 06:04:20;;;;;;;6.15;3.90;;;15.20;84.50;;;;;;4920955;29;20028;-94
2021/07/01 06:06:50;;;;;;;6.60;3.22;;;15.20;84.50;;;;;;4920928;29;20056;-94
2021/07/01 06:09:20;;;;;;;5.70;3.53;;;15.20;84.50;;;;;;4920885;29;20043;-91
2021/07/01 06:11:52;;;;;;;5.22;3.20;;;15.20;84.40;;;;;;4928349;29;20067;-96
2021/07/01 06:14:18;;;;;;;5.25;3.22;;;15.20;84.50;;;;;;4931154;29;20015;-96
2021/07/01 06:16:45;;;;;;;5.55;3.50;;;15.20;84.50;;;;;;4935039;29;20052;-96
2021/07/01 06:19:16;;;;;;;5.15;3.45;;;15.20;84.50;;;;;;4927956;29;20032;-96
2021/07/01 06:21:41;;;;;;;5.05;3.00;;;15.20;84.60;;;;;;4913635;29;20174;-95
2021/07/01 06:24:11;;;;;;;5.45;2.70;;;15.20;84.70;;;;;;4923147;29;20033;-96
2021/07/01 06:26:37;;;;;;;5.75;3.22;;;15.20;84.60;;;;;;4929460;29;20044;-96
2021/07/01 06:29:04;;;;;;;3.85;2.72;;;15.20;84.70;;;;;;4934638;29;20036;-96
2021/07/01 06:32:02;;;;;;;3.78;2.20;;;15.30;84.80;;;;;;4940026;29;20020;-96
2021/07/01 06:35:31;;;;;;;5.40;3.05;;;15.30;84.70;;;;;;4925648;29;20100;-95
2021/07/01 06:38:06;;;;;;;4.55;2.80;;;15.40;84.70;;;;;;4911913;29;20184;-95
2021/07/01 06:40:39;;;;;;;6.88;4.50;;;15.40;84.70;;;;;;4914026;29;20040;-95
2021/07/01 06:43:12;;;;;;;6.18;3.75;;;15.40;84.70;;;;;;4916486;29;20032;-92
2021/07/01 06:45:39;;;;;;;3.90;2.30;;;15.30;84.70;;;;;;4915410;29;20036;-87
2021/07/01 06:48:05;;;;;;;5.07;3.55;;;15.40;84.80;;;;;;4915319;29;20643;-92
2021/07/01 06:50:31;;;;;;;4.25;2.55;;;15.40;84.60;;;;;;4914704;29;20032;-91
2021/07/01 06:52:58;;;;;;;8.00;3.90;;;15.40;84.60;;;;;;4910327;29;20036;-87
2021/07/01 06:55:25;;;;;;;7.05;4.13;;;15.40;84.60;;;;;;4910402;29;20028;-90
2021/07/01 06:57:51;;;;;;;7.97;4.03;;;15.40;84.80;;;;;;4912608;29;20059;-89
2021/07/01 07:00:19;;;;;;;4.72;2.50;;;15.50;84.80;;;;;;4907293;29;20060;-90
2021/07/01 07:02:45;;;;;;;8.77;5.50;;;15.50;84.70;;;;;;4911068;29;20032;-89
2021/07/01 07:05:13;;;;;;;4.70;2.97;;;15.50;84.80;;;;;;4911713;29;20468;-92
2021/07/01 07:07:40;;;;;;;7.05;4.38;;;15.50;84.80;;;;;;4913522;29;20028;-93
2021/07/01 07:10:09;;;;;;;8.15;3.80;;;15.60;84.80;;;;;;4911036;29;20036;-96
2021/07/01 07:12:43;;;;;;;4.68;3.33;;;15.60;84.70;;;;;;4915467;29;20017;-95
2021/07/01 07:15:17;;;;;;;5.78;3.65;;;15.60;84.60;;;;;;4915481;29;20040;-92
2021/07/01 07:17:45;;;;;;;8.77;5.05;;;15.70;84.50;;;;;;4920335;29;20008;-95
2021/07/01 07:20:13;;;;;;;7.18;4.32;;;15.70;84.40;;;;;;4982941;23;20088;-93
2021/07/01 07:22:42;;;;;;;7.47;4.25;;;15.70;84.40;;;;;;4919541;29;20027;-94
2021/07/01 07:25:10;;;;;;;8.05;4.60;;;15.70;84.30;;;;;;4917274;29;20028;-94
2021/07/01 07:27:38;;;;;;;8.82;4.50;;;15.70;84.40;;;;;;4918902;29;20020;-92
2021/07/01 07:30:06;;;;;;;8.52;4.25;;;15.70;84.40;;;;;;4917322;29;20039;-92
2021/07/01 07:32:33;;;;;;;11.13;5.28;;;15.70;84.40;;;;;;4919934;29;20025;-91
2021/07/01 07:34:58;;;;;;;8.88;4.15;;;15.70;84.40;;;;;;4909569;29;20030;-89
2021/07/01 07:37:24;;;;;;;5.53;3.10;;;15.80;84.50;;;;;;4918144;29;20024;-89
2021/07/01 07:39:50;;;;;;;11.73;6.10;;;15.80;84.50;;;;;;4918784;29;20534;-90
2021/07/01 07:42:17;;;;;;;7.40;4.07;;;15.80;84.50;;;;;;4917120;29;20488;-89
2021/07/01 07:44:43;;;;;;;7.82;4.78;;;15.80;84.50;;;;;;4918211;29;20040;-90
2021/07/01 07:47:14;;;;;;;8.35;4.68;;;15.80;84.40;;;;;;4918581;29;20032;-92
2021/07/01 07:49:41;;;;;;;5.03;2.90;;;15.80;84.40;;;;;;4899798;29;20065;-92
2021/07/01 07:52:13;;;;;;;8.95;4.40;;;15.90;84.40;;;;;;4926646;29;20071;-92
2021/07/01 07:54:53;;;;;;;9.73;5.18;;;15.80;84.50;;;;;;4933402;29;20028;-92
2021/07/01 07:57:20;;;;;;;10.30;4.80;;;15.90;84.70;;;;;;4917994;29;20035;-93
2021/07/01 07:59:50;;;;;;;6.40;3.45;;;15.90;84.60;;;;;;4916872;29;20048;-91
2021/07/01 08:03:09;;;;;;;9.27;5.07;;;15.90;84.50;;;;;;4918056;29;20036;-93
2021/07/01 08:05:38;;;;;;;6.07;3.60;;;16.00;84.40;;;;;;4917555;29;20048;-93
2021/07/01 08:08:12;;;;;;;7.28;3.58;;;16.00;84.40;;;;;;4919081;29;20119;-92
2021/07/01 08:10:39;;;;;;;6.82;4.28;;;16.00;84.40;;;;;;4918601;29;20055;-92
2021/07/01 08:13:06;;;;;;;11.20;5.20;;;16.00;84.30;;;;;;4917737;29;20024;-92
2021/07/01 08:15:34;;;;;;;9.50;5.13;;;16.00;84.30;;;;;;4917476;29;20024;-92
2021/07/01 08:18:28;;;;;;;9.85;5.43;;;16.00;84.30;;;;;;4916955;29;20585;-94
2021/07/01 08:20:54;;;;;;;10.60;5.88;;;16.00;84.30;;;;;;4909459;29;20055;-91
2021/07/01 08:23:20;;;;;;;9.02;4.80;;;15.90;84.30;;;;;;4929412;29;20028;-94
2021/07/01 08:25:47;;;;;;;9.82;4.45;;;16.00;84.30;;;;;;4935259;29;20114;-94
2021/07/01 08:28:21;;;;;;;12.90;5.38;;;16.00;84.20;;;;;;4917335;29;20108;-92
2021/07/01 08:30:47;;;;;;;8.05;5.05;;;16.00;84.20;;;;;;4918004;29;20091;-91
2021/07/01 08:33:15;;;;;;;10.20;5.60;;;16.00;84.30;;;;;;4916575;29;20025;-92
2021/07/01 08:35:41;;;;;;;12.10;5.93;;;16.00;84.30;;;;;;4918160;29;20095;-91
2021/07/01 08:38:08;;;;;;;11.07;5.03;;;16.10;84.30;;;;;;4918076;29;20467;-92
2021/07/01 08:40:36;;;;;;;7.88;3.55;;;16.10;84.40;;;;;;4916735;29;20024;-92
2021/07/01 08:43:04;;;;;;;14.85;5.40;;;16.10;84.30;;;;;;4917201;29;20024;-92
2021/07/01 08:46:05;;;;;;;6.18;3.58;;;16.10;84.30;;;;;;4918057;29;20047;-92
2021/07/01 08:49:00;;;;;;;10.15;4.75;;;16.10;84.30;;;;;;4916854;29;20032;-92
2021/07/01 08:51:35;;;;;;;10.55;5.35;;;16.10;84.30;;;;;;4917497;29;20083;-93
2021/07/01 08:54:21;;;;;;;7.30;4.20;;;16.10;84.20;;;;;;4917365;29;20023;-92
2021/07/01 08:56:47;;;;;;;8.98;4.50;;;16.20;84.20;;;;;;4916295;29;20024;-93
2021/07/01 08:59:16;;;;;;;9.18;5.07;;;16.20;84.20;;;;;;4916307;29;20028;-92
2021/07/01 09:01:46;;;;;;;7.70;4.40;;;16.20;84.10;;;;;;4917152;29;20539;-92
2021/07/01 09:04:13;;;;;;;13.82;6.28;;;16.30;84.20;;;;;;4917066;29;20036;-91
2021/07/01 09:06:44;;;;;;;11.38;5.32;;;16.30;84.20;;;;;;4916408;29;20036;-90
2021/07/01 09:09:11;;;;;;;11.02;5.07;;;16.40;84.30;;;;;;4917553;29;20032;-92
2021/07/01 09:11:39;;;;;;;11.50;6.03;;;16.40;84.10;;;;;;4915662;29;20024;-93
2021/07/01 09:14:08;;;;;;;12.43;6.63;;;16.30;84.00;;;;;;4917156;29;20091;-90
2021/07/01 09:16:36;;;;;;;8.88;5.15;;;16.30;84.10;;;;;;4917036;29;20047;-91
2021/07/01 09:19:03;;;;;;;11.10;4.88;;;16.30;84.10;;;;;;4916562;29;20794;-90
2021/07/01 09:21:29;;;;;;;8.77;4.45;;;16.30;84.00;;;;;;4912170;29;20055;-90
2021/07/01 09:23:57;;;;;;;12.68;6.50;;;16.30;84.00;;;;;;4916127;29;20131;-94
2021/07/01 09:26:24;;;;;;;9.70;5.13;;;16.30;84.00;;;;;;4917813;29;20039;-94
2021/07/01 09:28:52;;;;;;;10.82;5.40;;;16.30;84.10;;;;;;4915463;29;20036;-94
2021/07/01 09:31:20;;;;;;;9.10;4.32;;;16.30;84.10;;;;;;4917090;29;20123;-93
2021/07/01 09:33:48;;;;;;;8.85;4.78;;;16.30;84.10;;;;;;4915903;29;20174;-94
2021/07/01 09:36:18;;;;;;;11.77;5.35;;;16.30;84.10;;;;;;4902699;29;20021;-92
2021/07/01 09:38:45;;;;;;;11.85;5.85;;;16.30;84.20;;;;;;4917191;29;20031;-93
2021/07/01 09:41:14;;;;;;;11.57;5.82;;;16.30;84.30;;;;;;4916622;29;20024;-93
2021/07/01 09:43:45;;;;;;;9.30;4.70;;;16.30;84.50;;;;;;4915835;29;20079;-93
2021/07/01 09:46:20;;;;;;;7.97;4.13;;;16.20;84.50;;;;;;4915369;29;20036;-91
2021/07/01 09:48:48;;;;;;;9.50;4.60;;;16.20;84.50;;;;;;4915270;29;20084;-93
2021/07/01 09:51:16;;;;;;;10.73;4.75;;;16.30;84.60;;;;;;4911069;29;20036;-91
2021/07/01 09:53:47;;;;;;;8.50;4.32;;;16.20;84.60;;;;;;4915766;29;20021;-91
2021/07/01 09:56:13;;;;;;;13.27;5.20;;;16.20;84.70;;;;;;4916515;29;20119;-93
2021/07/01 09:58:48;;;;;;;8.60;3.90;;;16.30;84.80;;;;;;4915186;29;20028;-92
2021/07/01 10:01:41;;;;;;;8.85;4.70;;;16.20;84.70;;;;;;4916439;29;20076;-93
2021/07/01 10:04:08;;;;;;;10.82;4.43;;;16.30;84.80;;;;;;4911096;29;20028;-92
2021/07/01 10:06:35;;;;;;;8.27;3.72;;;16.30;84.70;;;;;;4916211;29;20212;-92
2021/07/01 10:09:06;;;;;;;12.75;5.10;;;16.30;84.70;;;;;;4915128;29;20468;-92
2021/07/01 10:11:35;;;;;;;7.90;4.93;;;16.40;84.70;;;;;;4914918;29;20038;-91
2021/07/01 10:14:17;;;;;;;9.30;4.70;;;16.40;84.70;;;;;;4914639;29;20034;-92
2021/07/01 10:16:43;;;;;;;9.00;3.80;;;16.40;84.60;;;;;;4914649;29;20103;-92
2021/07/01 10:19:16;;;;;;;10.10;4.53;;;16.50;84.50;;;;;;4912736;29;20776;-91
2021/07/01 10:21:42;;;;;;;11.40;5.38;;;16.50;84.40;;;;;;4916057;29;20055;-92
2021/07/01 10:24:13;;;;;;;10.65;5.57;;;16.50;84.30;;;;;;4915063;29;20025;-91
2021/07/01 10:26:42;;;;;;;10.00;4.75;;;16.50;84.40;;;;;;4916406;29;20080;-91
2021/07/01 10:29:09;;;;;;;10.13;4.93;;;16.50;84.40;;;;;;4915929;29;20040;-92
2021/07/01 10:31:55;;;;;;;13.70;5.40;;;16.60;84.40;;;;;;4914617;29;20078;-91
2021/07/01 10:34:25;;;;;;;10.70;5.10;;;16.60;84.30;;;;;;4915594;29;20034;-92
2021/07/01 10:37:17;;;;;;;6.68;3.33;;;16.70;84.30;;;;;;4916651;29;20027;-95
2021/07/01 10:39:42;;;;;;;8.98;4.80;;;16.70;84.20;;;;;;4898953;29;20061;-90
2021/07/01 10:42:09;;;;;;;9.07;5.20;;;16.70;84.20;;;;;;4909630;29;20032;-91
2021/07/01 10:44:38;;;;;;;12.38;5.35;;;16.70;84.30;;;;;;4920362;29;20472;-92
2021/07/01 10:47:25;;;;;;;9.57;4.70;;;16.80;84.20;;;;;;4912603;29;20020;-90
2021/07/01 10:49:51;;;;;;;6.80;3.80;;;16.80;84.20;;;;;;4906244;29;20028;-91
2021/07/01 10:52:17;;;;;;;10.02;4.90;;;16.90;84.00;;;;;;4915409;29;20020;-91
2021/07/01 10:55:03;;;;;;;10.63;5.03;;;16.90;84.00;;;;;;4918535;29;20111;-93
2021/07/01 10:57:30;;;;;;;9.32;4.55;;;17.00;84.00;;;;;;4919847;29;20046;-91
2021/07/01 10:59:57;;;;;;;10.93;4.97;;;17.00;83.80;;;;;;4918022;29;20032;-89
2021/07/01 11:02:32;;;;;;;10.98;5.65;;;17.00;83.80;;;;;;4918738;29;20471;-91
2021/07/01 11:05:03;;;;;;;8.02;3.88;;;17.00;83.80;;;;;;4917831;29;20032;-92
2021/07/01 11:07:44;;;;;;;8.05;4.43;;;17.00;83.80;;;;;;4919496;29;20032;-89
2021/07/01 11:10:11;;;;;;;14.75;6.50;;;17.00;83.90;;;;;;4919265;29;20032;-89
2021/07/01 11:12:45;;;;;;;11.82;5.95;;;17.00;83.90;;;;;;4919822;29;20032;-89
2021/07/01 11:15:12;;;;;;;11.07;5.55;;;16.90;84.00;;;;;;4926171;29;20039;-90
2021/07/01 11:17:44;;;;;;;8.18;4.60;;;16.90;84.00;;;;;;4917013;29;20066;-90
2021/07/01 11:20:17;;;;;;;;;;;16.90;83.90;;;;;;4914502;29;20036;-90
2021/07/01 11:22:54;;;;;;;7.85;4.13;;;16.90;83.80;;;;;;4918968;29;19911;-91
2021/07/01 11:25:29;;;;;;;11.02;4.57;;;17.00;83.80;;;;;;4918985;29;20056;-92
2021/07/01 11:28:17;;;;;;;10.52;5.50;;;16.90;83.70;;;;;;4919214;29;20547;-92
2021/07/01 11:30:55;;;;;;;15.15;6.32;;;17.00;83.80;;;;;;4916180;29;20119;-89
2021/07/01 11:33:22;;;;;;;9.93;4.72;;;17.00;83.80;;;;;;4915856;29;20519;-89
2021/07/01 11:35:49;;;;;;;13.50;5.90;;;17.00;83.80;;;;;;4919220;29;20099;-91
2021/07/01 11:38:33;;;;;;;9.10;4.80;;;17.10;83.70;;;;;;4907746;29;20187;-91
2021/07/01 11:41:02;;;;;;;8.68;4.53;;;17.10;83.70;;;;;;4915369;29;20131;-91
2021/07/01 11:43:29;;;;;;;8.55;4.43;;;17.20;83.60;;;;;;4916887;29;20039;-91
2021/07/01 11:45:55;;;;;;;13.02;6.18;;;17.20;83.40;;;;;;4916916;29;20511;-92
2021/07/01 11:48:23;;;;;;;9.82;4.85;;;17.20;83.30;;;;;;4917037;29;20123;-90
2021/07/01 11:50:51;;;;;;;8.63;4.57;;;17.30;83.30;;;;;;4918747;29;20035;-90
2021/07/01 11:53:19;;;;;;;9.48;4.53;;;17.30;83.10;;;;;;4916003;29;20028;-89
2021/07/01 11:55:49;;;;;;;8.73;4.88;;;17.40;83.10;;;;;;4915448;29;20114;-91
2021/07/01 11:58:16;;;;;;;10.27;4.60;;;17.40;82.80;;;;;;4917217;29;20056;-89
2021/07/01 12:00:42;;;;;;;10.30;5.25;;;17.40;82.70;;;;;;4919684;29;20024;-87
2021/07/01 12:03:09;;;;;;;8.38;4.43;;;17.50;82.70;;;;;;4909617;29;20515;-88
2021/07/01 12:05:44;;;;;;;8.07;4.18;;;17.60;82.50;;;;;;4914120;29;20059;-89
2021/07/01 12:08:13;;;;;;;8.30;4.43;;;17.70;82.40;;;;;;4916960;29;20028;-89
2021/07/01 12:10:40;;;;;;;8.38;4.95;;;17.70;82.20;;;;;;4917060;29;20044;-91
2021/07/01 12:13:34;;;;;;;8.35;3.70;;;17.70;82.10;;;;;;4916322;29;20504;-89
2021/07/01 12:16:08;;;;;;;8.10;4.32;;;17.80;82.00;;;;;;4913671;29;20040;-89
2021/07/01 12:18:45;;;;;;;11.15;4.38;;;17.80;81.90;;;;;;4915306;29;20028;-88
2021/07/01 12:21:17;;;;;;;7.60;3.83;;;17.80;81.70;;;;;;4910972;29;20088;-89
2021/07/01 12:23:55;;;;;;;8.97;3.70;;;17.90;81.70;;;;;;4914209;29;20112;-89
2021/07/01 12:26:42;;;;;;;7.03;3.65;;;18.00;81.60;;;;;;4912164;29;20543;-88
2021/07/01 12:29:20;;;;;;;8.95;3.67;;;18.00;81.30;;;;;;4911186;29;20384;-89
2021/07/01 12:31:47;;;;;;;8.13;3.65;;;18.00;81.20;;;;;;4914814;29;20047;-90
2021/07/01 12:34:20;;;;;;;9.45;4.25;;;18.10;81.10;;;;;;4914540;29;20033;-89
2021/07/01 12:37:00;;;;;;;10.05;4.95;;;18.30;81.00;;;;;;4914119;29;20086;-90
2021/07/01 12:39:29;;;;;;;9.35;4.25;;;18.30;80.50;;;;;;4912435;29;20502;-89
2021/07/01 12:42:05;;;;;;;9.60;4.03;;;18.40;80.40;;;;;;4917593;29;20666;-89
2021/07/01 12:44:35;;;;;;;7.85;3.65;;;18.40;80.20;;;;;;4916343;29;20032;-89
2021/07/01 12:47:11;;;;;;;8.32;4.40;;;18.50;80.10;;;;;;4909475;29;20020;-90
2021/07/01 12:52:58;;;;;;;9.50;4.10;;;18.40;80.30;;;;;;5008364;23;20080;-89
2021/07/01 12:55:26;;;;;;;9.32;4.15;;;18.50;79.70;;;;;;4928869;29;20028;-88
2021/07/01 12:57:52;;;;;;;9.90;4.70;;;18.50;79.70;;;;;;4892602;29;20111;-88